sensor_id;sensor_type;location;lat;lon;timestamp;temperature;humidity
13223;DHT22;6676;45.192;5.722;2022-12-07T00:01:23;2.50;99.90
13223;DHT22;6676;45.192;5.722;2022-12-07T00:04:16;2.50;99.90
13223;DHT22;6676;45.192;5.722;2022-12-07T00:07:08;2.60;99.90
13223;DHT22;6676;45.192;5.722;2022-12-07T00:10:00;2.60;99.90
13223;DHT22;6676;45.192;5.722;2022-12-07T00:12:52;2.50;99.90
13223;DHT22;6676;45.192;5.722;2022-12-07T00:15:44;2.50;99.90
13223;DHT22;6676;45.192;5.722;2022-12-07T00:18:36;2.60;99.90
13223;DHT22;6676;45.192;5.722;2022-12-07T00:24:08;2.60;99.90
13223;DHT22;6676;45.192;5.722;2022-12-07T00:27:00;2.60;99.90
13223;DHT22;6676;45.192;5.722;2022-12-07T00:29:52;2.60;99.90
13223;DHT22;6676;45.192;5.722;2022-12-07T00:32:44;2.60;99.90
13223;DHT22;6676;45.192;5.722;2022-12-07T00:35:36;2.60;99.90
13223;DHT22;6676;45.192;5.722;2022-12-07T00:38:30;2.50;99.90
13223;DHT22;6676;45.192;5.722;2022-12-07T00:41:24;2.50;99.90
13223;DHT22;6676;45.192;5.722;2022-12-07T00:44:16;2.50;99.90
13223;DHT22;6676;45.192;5.722;2022-12-07T00:47:07;2.40;99.90
13223;DHT22;6676;45.192;5.722;2022-12-07T00:52:40;2.50;99.90
13223;DHT22;6676;45.192;5.722;2022-12-07T00:58:16;2.50;99.90
13223;DHT22;6676;45.192;5.722;2022-12-07T01:01:09;2.60;99.90
13223;DHT22;6676;45.192;5.722;2022-12-07T01:04:04;2.60;99.90
13223;DHT22;6676;45.192;5.722;2022-12-07T01:06:56;2.60;99.90
13223;DHT22;6676;45.192;5.722;2022-12-07T01:09:47;2.50;99.90
13223;DHT22;6676;45.192;5.722;2022-12-07T01:12:39;2.60;99.90
13223;DHT22;6676;45.192;5.722;2022-12-07T01:15:31;2.50;99.90
13223;DHT22;6676;45.192;5.722;2022-12-07T01:21:05;2.40;99.90
13223;DHT22;6676;45.192;5.722;2022-12-07T01:23:58;2.50;99.90
13223;DHT22;6676;45.192;5.722;2022-12-07T01:26:50;2.40;99.90
13223;DHT22;6676;45.192;5.722;2022-12-07T01:29:42;2.40;99.90
13223;DHT22;6676;45.192;5.722;2022-12-07T01:32:34;2.40;99.90
13223;DHT22;6676;45.192;5.722;2022-12-07T01:38:06;2.50;99.90
13223;DHT22;6676;45.192;5.722;2022-12-07T01:40:59;2.60;99.90
13223;DHT22;6676;45.192;5.722;2022-12-07T01:46:55;2.60;99.90
13223;DHT22;6676;45.192;5.722;2022-12-07T01:52:30;2.60;99.90
13223;DHT22;6676;45.192;5.722;2022-12-07T01:58:01;2.60;99.90
13223;DHT22;6676;45.192;5.722;2022-12-07T02:00:53;2.50;99.90
13223;DHT22;6676;45.192;5.722;2022-12-07T02:03:45;2.50;99.90
13223;DHT22;6676;45.192;5.722;2022-12-07T02:09:15;2.50;99.90
13223;DHT22;6676;45.192;5.722;2022-12-07T02:12:07;2.50;99.90
13223;DHT22;6676;45.192;5.722;2022-12-07T02:14:58;2.60;99.90
13223;DHT22;6676;45.192;5.722;2022-12-07T02:20:33;2.60;99.90
13223;DHT22;6676;45.192;5.722;2022-12-07T02:23:58;2.60;99.90
13223;DHT22;6676;45.192;5.722;2022-12-07T02:27:16;2.60;99.90
13223;DHT22;6676;45.192;5.722;2022-12-07T02:35:32;2.70;99.90
13223;DHT22;6676;45.192;5.722;2022-12-07T02:38:28;2.60;99.90
13223;DHT22;6676;45.192;5.722;2022-12-07T02:41:22;2.60;99.90
13223;DHT22;6676;45.192;5.722;2022-12-07T02:44:17;2.60;99.90
13223;DHT22;6676;45.192;5.722;2022-12-07T02:47:12;2.60;99.90
13223;DHT22;6676;45.192;5.722;2022-12-07T02:52:44;2.70;99.90
13223;DHT22;6676;45.192;5.722;2022-12-07T02:58:27;2.90;99.90
13223;DHT22;6676;45.192;5.722;2022-12-07T03:04:10;2.90;99.90
13223;DHT22;6676;45.192;5.722;2022-12-07T03:09:43;2.90;99.90
13223;DHT22;6676;45.192;5.722;2022-12-07T03:12:40;3.00;99.90
13223;DHT22;6676;45.192;5.722;2022-12-07T03:15:33;3.00;99.90
13223;DHT22;6676;45.192;5.722;2022-12-07T03:18:29;3.00;99.90
13223;DHT22;6676;45.192;5.722;2022-12-07T03:24:04;2.90;99.90
13223;DHT22;6676;45.192;5.722;2022-12-07T03:29:42;3.00;99.90
13223;DHT22;6676;45.192;5.722;2022-12-07T03:32:36;3.00;99.90
13223;DHT22;6676;45.192;5.722;2022-12-07T03:38:25;3.00;99.90
13223;DHT22;6676;45.192;5.722;2022-12-07T03:43:57;3.10;99.90
13223;DHT22;6676;45.192;5.722;2022-12-07T03:46:55;3.10;99.90
13223;DHT22;6676;45.192;5.722;2022-12-07T03:49:48;3.10;99.90
13223;DHT22;6676;45.192;5.722;2022-12-07T03:52:42;3.10;99.90
13223;DHT22;6676;45.192;5.722;2022-12-07T03:58:16;3.20;99.90
13223;DHT22;6676;45.192;5.722;2022-12-07T04:03:47;3.30;99.90
13223;DHT22;6676;45.192;5.722;2022-12-07T04:06:40;3.30;99.90
13223;DHT22;6676;45.192;5.722;2022-12-07T04:09:31;3.30;99.90
13223;DHT22;6676;45.192;5.722;2022-12-07T04:17:43;3.20;99.90
13223;DHT22;6676;45.192;5.722;2022-12-07T04:20:35;3.20;99.90
13223;DHT22;6676;45.192;5.722;2022-12-07T04:23:27;3.20;99.90
13223;DHT22;6676;45.192;5.722;2022-12-07T04:26:18;3.20;99.90
13223;DHT22;6676;45.192;5.722;2022-12-07T04:29:10;3.20;99.90
13223;DHT22;6676;45.192;5.722;2022-12-07T04:32:02;3.20;99.90
13223;DHT22;6676;45.192;5.722;2022-12-07T04:34:54;3.30;99.90
13223;DHT22;6676;45.192;5.722;2022-12-07T04:37:48;3.40;99.90
13223;DHT22;6676;45.192;5.722;2022-12-07T04:43:24;3.40;99.90
13223;DHT22;6676;45.192;5.722;2022-12-07T04:46:15;3.50;99.90
13223;DHT22;6676;45.192;5.722;2022-12-07T04:49:07;3.40;99.90
13223;DHT22;6676;45.192;5.722;2022-12-07T04:52:01;3.30;99.90
13223;DHT22;6676;45.192;5.722;2022-12-07T04:54:52;3.30;99.90
13223;DHT22;6676;45.192;5.722;2022-12-07T04:57:44;3.30;99.90
13223;DHT22;6676;45.192;5.722;2022-12-07T05:00:36;3.30;99.90
13223;DHT22;6676;45.192;5.722;2022-12-07T05:03:28;3.30;99.90
13223;DHT22;6676;45.192;5.722;2022-12-07T05:06:20;3.30;99.90
13223;DHT22;6676;45.192;5.722;2022-12-07T05:09:12;3.30;99.90
13223;DHT22;6676;45.192;5.722;2022-12-07T05:12:03;3.30;99.90
13223;DHT22;6676;45.192;5.722;2022-12-07T05:14:54;3.40;99.90
13223;DHT22;6676;45.192;5.722;2022-12-07T05:20:31;3.40;99.90
13223;DHT22;6676;45.192;5.722;2022-12-07T05:23:24;3.60;99.90
13223;DHT22;6676;45.192;5.722;2022-12-07T05:26:15;3.60;99.90
13223;DHT22;6676;45.192;5.722;2022-12-07T05:29:09;3.50;99.90
13223;DHT22;6676;45.192;5.722;2022-12-07T05:32:00;3.50;99.90
13223;DHT22;6676;45.192;5.722;2022-12-07T05:34:52;3.50;99.90
13223;DHT22;6676;45.192;5.722;2022-12-07T05:37:45;3.50;99.90
13223;DHT22;6676;45.192;5.722;2022-12-07T05:43:28;3.60;99.90
13223;DHT22;6676;45.192;5.722;2022-12-07T05:49:04;3.50;99.90
13223;DHT22;6676;45.192;5.722;2022-12-07T05:51:56;3.70;99.90
13223;DHT22;6676;45.192;5.722;2022-12-07T05:54:48;3.70;99.90
13223;DHT22;6676;45.192;5.722;2022-12-07T05:57:40;3.60;99.90
13223;DHT22;6676;45.192;5.722;2022-12-07T06:00:34;3.50;99.90
13223;DHT22;6676;45.192;5.722;2022-12-07T06:03:26;3.40;99.90
13223;DHT22;6676;45.192;5.722;2022-12-07T06:06:17;3.40;99.90
13223;DHT22;6676;45.192;5.722;2022-12-07T06:09:09;3.50;99.90
13223;DHT22;6676;45.192;5.722;2022-12-07T06:12:03;3.50;99.90
13223;DHT22;6676;45.192;5.722;2022-12-07T06:17:50;3.40;99.90
13223;DHT22;6676;45.192;5.722;2022-12-07T06:23:22;3.50;99.90
13223;DHT22;6676;45.192;5.722;2022-12-07T06:26:15;3.60;99.90
13223;DHT22;6676;45.192;5.722;2022-12-07T06:29:07;3.60;99.90
13223;DHT22;6676;45.192;5.722;2022-12-07T06:31:59;3.50;99.90
13223;DHT22;6676;45.192;5.722;2022-12-07T06:34:51;3.50;99.90
13223;DHT22;6676;45.192;5.722;2022-12-07T06:37:43;3.40;99.90
13223;DHT22;6676;45.192;5.722;2022-12-07T06:43:16;3.30;99.90
13223;DHT22;6676;45.192;5.722;2022-12-07T06:46:07;3.30;99.90
13223;DHT22;6676;45.192;5.722;2022-12-07T06:51:46;3.20;99.90
13223;DHT22;6676;45.192;5.722;2022-12-07T06:57:34;3.30;99.90
13223;DHT22;6676;45.192;5.722;2022-12-07T07:03:08;3.30;99.90
13223;DHT22;6676;45.192;5.722;2022-12-07T07:06:00;3.10;99.90
13223;DHT22;6676;45.192;5.722;2022-12-07T07:08:52;3.10;99.90
13223;DHT22;6676;45.192;5.722;2022-12-07T07:11:43;3.10;99.90
13223;DHT22;6676;45.192;5.722;2022-12-07T07:14:35;3.10;99.90
13223;DHT22;6676;45.192;5.722;2022-12-07T07:17:27;3.30;99.90
13223;DHT22;6676;45.192;5.722;2022-12-07T07:23:04;3.20;99.90
13223;DHT22;6676;45.192;5.722;2022-12-07T07:28:39;3.30;99.90
13223;DHT22;6676;45.192;5.722;2022-12-07T07:31:31;3.50;99.90
13223;DHT22;6676;45.192;5.722;2022-12-07T07:34:24;3.60;99.90
13223;DHT22;6676;45.192;5.722;2022-12-07T07:39:55;3.30;99.90
13223;DHT22;6676;45.192;5.722;2022-12-07T07:42:48;3.20;99.90
13223;DHT22;6676;45.192;5.722;2022-12-07T07:48:20;3.20;99.90
13223;DHT22;6676;45.192;5.722;2022-12-07T07:51:13;3.20;99.90
13223;DHT22;6676;45.192;5.722;2022-12-07T07:54:07;3.30;99.90
13223;DHT22;6676;45.192;5.722;2022-12-07T07:57:00;3.20;99.90
13223;DHT22;6676;45.192;5.722;2022-12-07T07:59:52;3.20;99.90
13223;DHT22;6676;45.192;5.722;2022-12-07T08:02:44;3.20;99.90
13223;DHT22;6676;45.192;5.722;2022-12-07T08:08:16;3.20;99.90
13223;DHT22;6676;45.192;5.722;2022-12-07T08:13:47;3.20;99.90
13223;DHT22;6676;45.192;5.722;2022-12-07T08:16:39;3.30;99.90
13223;DHT22;6676;45.192;5.722;2022-12-07T08:19:30;3.30;99.90
13223;DHT22;6676;45.192;5.722;2022-12-07T08:22:22;3.70;99.90
13223;DHT22;6676;45.192;5.722;2022-12-07T08:27:57;3.50;99.90
13223;DHT22;6676;45.192;5.722;2022-12-07T08:30:49;3.50;99.90
13223;DHT22;6676;45.192;5.722;2022-12-07T08:33:40;3.40;99.90
13223;DHT22;6676;45.192;5.722;2022-12-07T08:36:32;3.30;99.90
13223;DHT22;6676;45.192;5.722;2022-12-07T08:39:24;3.30;99.90
13223;DHT22;6676;45.192;5.722;2022-12-07T08:44:56;3.30;99.90
13223;DHT22;6676;45.192;5.722;2022-12-07T08:47:57;3.20;99.90
13223;DHT22;6676;45.192;5.722;2022-12-07T08:50:53;3.30;99.90
13223;DHT22;6676;45.192;5.722;2022-12-07T08:56:26;3.50;99.90
13223;DHT22;6676;45.192;5.722;2022-12-07T08:59:19;3.40;99.90
13223;DHT22;6676;45.192;5.722;2022-12-07T09:02:11;3.40;99.90
13223;DHT22;6676;45.192;5.722;2022-12-07T09:05:03;3.40;99.90
13223;DHT22;6676;45.192;5.722;2022-12-07T09:08:00;3.30;99.90
13223;DHT22;6676;45.192;5.722;2022-12-07T09:10:52;3.30;99.90
13223;DHT22;6676;45.192;5.722;2022-12-07T09:13:43;3.30;99.90
13223;DHT22;6676;45.192;5.722;2022-12-07T09:16:35;3.30;99.90
13223;DHT22;6676;45.192;5.722;2022-12-07T09:19:27;3.40;99.90
13223;DHT22;6676;45.192;5.722;2022-12-07T09:22:23;3.50;99.90
13223;DHT22;6676;45.192;5.722;2022-12-07T09:27:57;3.60;99.90
13223;DHT22;6676;45.192;5.722;2022-12-07T09:30:50;3.70;99.90
13223;DHT22;6676;45.192;5.722;2022-12-07T09:33:42;3.80;99.90
13223;DHT22;6676;45.192;5.722;2022-12-07T09:36:35;3.90;99.90
13223;DHT22;6676;45.192;5.722;2022-12-07T09:39:28;3.90;99.90
13223;DHT22;6676;45.192;5.722;2022-12-07T09:42:30;3.90;99.90
13223;DHT22;6676;45.192;5.722;2022-12-07T09:45:24;4.00;99.90
13223;DHT22;6676;45.192;5.722;2022-12-07T09:48:19;3.90;99.90
13223;DHT22;6676;45.192;5.722;2022-12-07T09:53:57;3.90;99.90
13223;DHT22;6676;45.192;5.722;2022-12-07T09:56:48;3.90;99.90
13223;DHT22;6676;45.192;5.722;2022-12-07T09:59:40;3.90;99.90
13223;DHT22;6676;45.192;5.722;2022-12-07T10:07:53;4.00;99.90
13223;DHT22;6676;45.192;5.722;2022-12-07T10:13:34;4.10;99.90
13223;DHT22;6676;45.192;5.722;2022-12-07T10:16:35;4.10;99.90
13223;DHT22;6676;45.192;5.722;2022-12-07T10:19:27;4.10;99.90
13223;DHT22;6676;45.192;5.722;2022-12-07T10:22:19;4.20;99.90
13223;DHT22;6676;45.192;5.722;2022-12-07T10:28:11;4.20;99.90
13223;DHT22;6676;45.192;5.722;2022-12-07T10:31:15;4.20;99.90
13223;DHT22;6676;45.192;5.722;2022-12-07T10:34:01;4.10;99.90
13223;DHT22;6676;45.192;5.722;2022-12-07T10:36:55;4.20;99.90
13223;DHT22;6676;45.192;5.722;2022-12-07T10:39:51;4.20;99.90
13223;DHT22;6676;45.192;5.722;2022-12-07T10:48:29;4.40;99.90
13223;DHT22;6676;45.192;5.722;2022-12-07T10:51:24;4.60;99.90
13223;DHT22;6676;45.192;5.722;2022-12-07T10:54:20;4.60;99.90
13223;DHT22;6676;45.192;5.722;2022-12-07T11:00:24;4.60;99.90
13223;DHT22;6676;45.192;5.722;2022-12-07T11:06:32;4.50;99.90
13223;DHT22;6676;45.192;5.722;2022-12-07T11:09:46;4.40;99.90
13223;DHT22;6676;45.192;5.722;2022-12-07T11:12:56;4.40;99.90
13223;DHT22;6676;45.192;5.722;2022-12-07T11:18:34;4.50;99.90
13223;DHT22;6676;45.192;5.722;2022-12-07T11:21:29;4.60;99.90
13223;DHT22;6676;45.192;5.722;2022-12-07T11:24:24;4.60;99.90
13223;DHT22;6676;45.192;5.722;2022-12-07T11:27:21;4.70;99.90
13223;DHT22;6676;45.192;5.722;2022-12-07T11:33:09;4.70;99.90
13223;DHT22;6676;45.192;5.722;2022-12-07T11:36:08;4.70;99.90
13223;DHT22;6676;45.192;5.722;2022-12-07T11:39:03;4.80;99.90
13223;DHT22;6676;45.192;5.722;2022-12-07T11:42:01;4.80;99.90
13223;DHT22;6676;45.192;5.722;2022-12-07T11:44:56;4.90;99.90
13223;DHT22;6676;45.192;5.722;2022-12-07T11:47:51;4.90;99.90
13223;DHT22;6676;45.192;5.722;2022-12-07T11:53:22;5.00;99.90
13223;DHT22;6676;45.192;5.722;2022-12-07T11:56:16;5.00;99.90
13223;DHT22;6676;45.192;5.722;2022-12-07T11:59:12;5.00;99.90
13223;DHT22;6676;45.192;5.722;2022-12-07T12:02:11;5.00;99.90
13223;DHT22;6676;45.192;5.722;2022-12-07T12:05:05;5.00;99.90
13223;DHT22;6676;45.192;5.722;2022-12-07T12:08:00;5.00;99.90
13223;DHT22;6676;45.192;5.722;2022-12-07T12:11:02;5.10;99.90
13223;DHT22;6676;45.192;5.722;2022-12-07T12:22:58;5.00;99.90
13223;DHT22;6676;45.192;5.722;2022-12-07T12:25:52;5.00;99.90
13223;DHT22;6676;45.192;5.722;2022-12-07T12:28:52;5.10;99.90
13223;DHT22;6676;45.192;5.722;2022-12-07T12:31:46;5.10;99.90
13223;DHT22;6676;45.192;5.722;2022-12-07T12:34:57;5.10;99.90
13223;DHT22;6676;45.192;5.722;2022-12-07T12:37:43;5.00;99.90
13223;DHT22;6676;45.192;5.722;2022-12-07T12:40:52;5.00;99.90
13223;DHT22;6676;45.192;5.722;2022-12-07T12:43:50;5.00;99.90
13223;DHT22;6676;45.192;5.722;2022-12-07T12:49:41;5.00;99.90
13223;DHT22;6676;45.192;5.722;2022-12-07T12:52:56;5.00;99.90
13223;DHT22;6676;45.192;5.722;2022-12-07T12:59:22;5.10;99.90
13223;DHT22;6676;45.192;5.722;2022-12-07T13:02:21;5.10;99.90
13223;DHT22;6676;45.192;5.722;2022-12-07T13:08:00;5.00;99.90
13223;DHT22;6676;45.192;5.722;2022-12-07T13:13:41;5.00;99.90
13223;DHT22;6676;45.192;5.722;2022-12-07T13:16:50;5.00;99.90
13223;DHT22;6676;45.192;5.722;2022-12-07T13:19:59;5.00;99.90
13223;DHT22;6676;45.192;5.722;2022-12-07T13:22:54;5.00;99.90
13223;DHT22;6676;45.192;5.722;2022-12-07T13:29:10;4.90;99.90
13223;DHT22;6676;45.192;5.722;2022-12-07T13:32:02;4.80;99.90
13223;DHT22;6676;45.192;5.722;2022-12-07T13:34:54;4.80;99.90
13223;DHT22;6676;45.192;5.722;2022-12-07T13:37:45;4.90;99.90
13223;DHT22;6676;45.192;5.722;2022-12-07T13:43:17;4.80;99.90
13223;DHT22;6676;45.192;5.722;2022-12-07T13:46:12;4.80;99.90
13223;DHT22;6676;45.192;5.722;2022-12-07T13:49:19;4.90;99.90
13223;DHT22;6676;45.192;5.722;2022-12-07T13:54:58;4.90;99.90
13223;DHT22;6676;45.192;5.722;2022-12-07T13:57:53;5.00;99.90
13223;DHT22;6676;45.192;5.722;2022-12-07T14:00:45;5.00;99.90
13223;DHT22;6676;45.192;5.722;2022-12-07T14:03:37;4.90;99.90
13223;DHT22;6676;45.192;5.722;2022-12-07T14:06:29;4.90;99.90
13223;DHT22;6676;45.192;5.722;2022-12-07T14:09:23;4.90;99.90
13223;DHT22;6676;45.192;5.722;2022-12-07T14:12:16;4.80;99.90
13223;DHT22;6676;45.192;5.722;2022-12-07T14:15:19;4.90;99.90
13223;DHT22;6676;45.192;5.722;2022-12-07T14:18:28;4.90;99.90
13223;DHT22;6676;45.192;5.722;2022-12-07T14:21:22;4.90;99.90
13223;DHT22;6676;45.192;5.722;2022-12-07T14:24:19;4.90;99.90
13223;DHT22;6676;45.192;5.722;2022-12-07T14:27:19;4.90;99.90
13223;DHT22;6676;45.192;5.722;2022-12-07T14:30:16;4.80;99.90
13223;DHT22;6676;45.192;5.722;2022-12-07T14:33:09;4.90;99.90
13223;DHT22;6676;45.192;5.722;2022-12-07T14:36:01;4.90;99.90
13223;DHT22;6676;45.192;5.722;2022-12-07T14:38:52;4.80;99.90
13223;DHT22;6676;45.192;5.722;2022-12-07T14:41:45;4.80;99.90
13223;DHT22;6676;45.192;5.722;2022-12-07T14:44:44;4.90;99.90
13223;DHT22;6676;45.192;5.722;2022-12-07T14:47:35;4.80;99.90
13223;DHT22;6676;45.192;5.722;2022-12-07T14:50:28;4.80;99.90
13223;DHT22;6676;45.192;5.722;2022-12-07T14:56:02;4.90;99.90
13223;DHT22;6676;45.192;5.722;2022-12-07T14:58:55;4.90;99.90
13223;DHT22;6676;45.192;5.722;2022-12-07T15:01:47;4.80;99.90
13223;DHT22;6676;45.192;5.722;2022-12-07T15:04:39;4.80;99.90
13223;DHT22;6676;45.192;5.722;2022-12-07T15:07:31;4.90;99.90
13223;DHT22;6676;45.192;5.722;2022-12-07T15:10:24;4.90;99.90
13223;DHT22;6676;45.192;5.722;2022-12-07T15:13:18;4.90;99.90
13223;DHT22;6676;45.192;5.722;2022-12-07T15:16:28;4.90;99.90
13223;DHT22;6676;45.192;5.722;2022-12-07T15:19:22;4.90;99.90
13223;DHT22;6676;45.192;5.722;2022-12-07T15:22:22;4.90;99.90
13223;DHT22;6676;45.192;5.722;2022-12-07T15:25:15;4.90;99.90
13223;DHT22;6676;45.192;5.722;2022-12-07T15:28:07;4.90;99.90
13223;DHT22;6676;45.192;5.722;2022-12-07T15:31:00;4.80;99.90
13223;DHT22;6676;45.192;5.722;2022-12-07T15:33:54;4.80;99.90
13223;DHT22;6676;45.192;5.722;2022-12-07T15:36:46;4.80;99.90
13223;DHT22;6676;45.192;5.722;2022-12-07T15:39:38;4.80;99.90
13223;DHT22;6676;45.192;5.722;2022-12-07T15:42:30;4.70;99.90
13223;DHT22;6676;45.192;5.722;2022-12-07T15:45:21;4.80;99.90
13223;DHT22;6676;45.192;5.722;2022-12-07T15:51:04;4.90;99.90
13223;DHT22;6676;45.192;5.722;2022-12-07T15:53:56;4.80;99.90
13223;DHT22;6676;45.192;5.722;2022-12-07T15:56:49;4.90;99.90
13223;DHT22;6676;45.192;5.722;2022-12-07T15:59:40;4.80;99.90
13223;DHT22;6676;45.192;5.722;2022-12-07T16:02:32;4.80;99.90
13223;DHT22;6676;45.192;5.722;2022-12-07T16:05:25;4.80;99.90
13223;DHT22;6676;45.192;5.722;2022-12-07T16:08:17;4.90;99.90
13223;DHT22;6676;45.192;5.722;2022-12-07T16:11:09;4.90;99.90
13223;DHT22;6676;45.192;5.722;2022-12-07T16:14:01;4.90;99.90
13223;DHT22;6676;45.192;5.722;2022-12-07T16:16:53;4.90;99.90
13223;DHT22;6676;45.192;5.722;2022-12-07T16:19:44;4.90;99.90
13223;DHT22;6676;45.192;5.722;2022-12-07T16:22:36;4.80;99.90
13223;DHT22;6676;45.192;5.722;2022-12-07T16:25:28;4.90;99.90
13223;DHT22;6676;45.192;5.722;2022-12-07T16:28:20;4.80;99.90
13223;DHT22;6676;45.192;5.722;2022-12-07T16:31:13;4.80;99.90
13223;DHT22;6676;45.192;5.722;2022-12-07T16:34:12;4.80;99.90
13223;DHT22;6676;45.192;5.722;2022-12-07T16:37:03;4.90;99.90
13223;DHT22;6676;45.192;5.722;2022-12-07T16:39:55;4.80;99.90
13223;DHT22;6676;45.192;5.722;2022-12-07T16:42:47;4.90;99.90
13223;DHT22;6676;45.192;5.722;2022-12-07T16:45:38;4.90;99.90
13223;DHT22;6676;45.192;5.722;2022-12-07T16:48:31;4.90;99.90
13223;DHT22;6676;45.192;5.722;2022-12-07T16:51:25;4.80;99.90
13223;DHT22;6676;45.192;5.722;2022-12-07T16:54:17;4.90;99.90
13223;DHT22;6676;45.192;5.722;2022-12-07T16:57:09;4.90;99.90
13223;DHT22;6676;45.192;5.722;2022-12-07T17:00:07;4.90;99.90
13223;DHT22;6676;45.192;5.722;2022-12-07T17:03:00;5.00;99.90
13223;DHT22;6676;45.192;5.722;2022-12-07T17:05:56;4.90;99.90
13223;DHT22;6676;45.192;5.722;2022-12-07T17:08:53;5.00;99.90
13223;DHT22;6676;45.192;5.722;2022-12-07T17:11:52;5.00;99.90
13223;DHT22;6676;45.192;5.722;2022-12-07T17:14:45;5.00;99.90
13223;DHT22;6676;45.192;5.722;2022-12-07T17:18:18;5.00;99.90
13223;DHT22;6676;45.192;5.722;2022-12-07T17:21:13;4.90;99.90
13223;DHT22;6676;45.192;5.722;2022-12-07T17:24:07;4.90;99.90
13223;DHT22;6676;45.192;5.722;2022-12-07T17:27:00;4.90;99.90
13223;DHT22;6676;45.192;5.722;2022-12-07T17:29:52;4.90;99.90
13223;DHT22;6676;45.192;5.722;2022-12-07T17:32:44;4.90;99.90
13223;DHT22;6676;45.192;5.722;2022-12-07T17:35:36;4.90;99.90
13223;DHT22;6676;45.192;5.722;2022-12-07T17:38:31;4.90;99.90
13223;DHT22;6676;45.192;5.722;2022-12-07T17:41:25;4.90;99.90
13223;DHT22;6676;45.192;5.722;2022-12-07T17:44:35;5.00;99.90
13223;DHT22;6676;45.192;5.722;2022-12-07T17:47:34;5.00;99.90
13223;DHT22;6676;45.192;5.722;2022-12-07T17:53:08;5.00;99.90
13223;DHT22;6676;45.192;5.722;2022-12-07T17:56:02;5.00;99.90
13223;DHT22;6676;45.192;5.722;2022-12-07T17:58:57;5.00;99.90
13223;DHT22;6676;45.192;5.722;2022-12-07T18:01:49;5.00;99.90
13223;DHT22;6676;45.192;5.722;2022-12-07T18:04:41;4.90;99.90
13223;DHT22;6676;45.192;5.722;2022-12-07T18:10:21;4.90;99.90
13223;DHT22;6676;45.192;5.722;2022-12-07T18:13:13;4.90;99.90
13223;DHT22;6676;45.192;5.722;2022-12-07T18:16:24;5.00;99.90
13223;DHT22;6676;45.192;5.722;2022-12-07T18:19:20;5.00;99.90
13223;DHT22;6676;45.192;5.722;2022-12-07T18:22:11;5.00;99.90
13223;DHT22;6676;45.192;5.722;2022-12-07T18:25:03;5.00;99.90
13223;DHT22;6676;45.192;5.722;2022-12-07T18:27:56;5.00;99.90
13223;DHT22;6676;45.192;5.722;2022-12-07T18:30:47;5.00;99.90
13223;DHT22;6676;45.192;5.722;2022-12-07T18:33:43;5.00;99.90
13223;DHT22;6676;45.192;5.722;2022-12-07T18:36:36;5.00;99.90
13223;DHT22;6676;45.192;5.722;2022-12-07T18:42:07;5.00;99.90
13223;DHT22;6676;45.192;5.722;2022-12-07T18:44:59;5.00;99.90
13223;DHT22;6676;45.192;5.722;2022-12-07T18:47:52;5.00;99.90
13223;DHT22;6676;45.192;5.722;2022-12-07T18:50:46;5.00;99.90
13223;DHT22;6676;45.192;5.722;2022-12-07T18:56:25;5.00;99.90
13223;DHT22;6676;45.192;5.722;2022-12-07T18:59:17;5.00;99.90
13223;DHT22;6676;45.192;5.722;2022-12-07T19:05:08;4.90;99.90
13223;DHT22;6676;45.192;5.722;2022-12-07T19:08:01;4.90;99.90
13223;DHT22;6676;45.192;5.722;2022-12-07T19:10:54;4.90;99.90
13223;DHT22;6676;45.192;5.722;2022-12-07T19:16:28;4.90;99.90
13223;DHT22;6676;45.192;5.722;2022-12-07T19:19:29;4.90;99.90
13223;DHT22;6676;45.192;5.722;2022-12-07T19:22:22;4.90;99.90
13223;DHT22;6676;45.192;5.722;2022-12-07T19:25:13;5.00;99.90
13223;DHT22;6676;45.192;5.722;2022-12-07T19:30:45;4.90;99.90
13223;DHT22;6676;45.192;5.722;2022-12-07T19:33:36;4.90;99.90
13223;DHT22;6676;45.192;5.722;2022-12-07T19:36:28;4.90;99.90
13223;DHT22;6676;45.192;5.722;2022-12-07T19:39:20;4.90;99.90
13223;DHT22;6676;45.192;5.722;2022-12-07T19:42:11;4.90;99.90
13223;DHT22;6676;45.192;5.722;2022-12-07T19:45:07;4.90;99.90
13223;DHT22;6676;45.192;5.722;2022-12-07T19:47:59;4.90;99.90
13223;DHT22;6676;45.192;5.722;2022-12-07T19:50:50;4.90;99.90
13223;DHT22;6676;45.192;5.722;2022-12-07T19:56:24;4.90;99.90
13223;DHT22;6676;45.192;5.722;2022-12-07T19:59:19;4.90;99.90
13223;DHT22;6676;45.192;5.722;2022-12-07T20:02:13;4.80;99.90
13223;DHT22;6676;45.192;5.722;2022-12-07T20:05:06;4.80;99.90
13223;DHT22;6676;45.192;5.722;2022-12-07T20:07:59;4.80;99.90
13223;DHT22;6676;45.192;5.722;2022-12-07T20:10:53;4.80;99.90
13223;DHT22;6676;45.192;5.722;2022-12-07T20:13:45;4.80;99.90
13223;DHT22;6676;45.192;5.722;2022-12-07T20:16:37;4.80;99.90
13223;DHT22;6676;45.192;5.722;2022-12-07T20:19:30;4.90;99.90
13223;DHT22;6676;45.192;5.722;2022-12-07T20:22:21;4.90;99.90
13223;DHT22;6676;45.192;5.722;2022-12-07T20:27:52;4.80;99.90
13223;DHT22;6676;45.192;5.722;2022-12-07T20:36:08;4.80;99.90
13223;DHT22;6676;45.192;5.722;2022-12-07T20:39:03;4.80;99.90
13223;DHT22;6676;45.192;5.722;2022-12-07T20:41:55;4.80;99.90
13223;DHT22;6676;45.192;5.722;2022-12-07T20:45:05;4.80;99.90
13223;DHT22;6676;45.192;5.722;2022-12-07T20:50:38;4.80;99.90
13223;DHT22;6676;45.192;5.722;2022-12-07T20:53:31;4.80;99.90
13223;DHT22;6676;45.192;5.722;2022-12-07T20:56:27;4.80;99.90
13223;DHT22;6676;45.192;5.722;2022-12-07T21:02:00;4.90;99.90
13223;DHT22;6676;45.192;5.722;2022-12-07T21:04:54;4.90;99.90
13223;DHT22;6676;45.192;5.722;2022-12-07T21:10:36;4.90;99.90
13223;DHT22;6676;45.192;5.722;2022-12-07T21:13:27;4.80;99.90
13223;DHT22;6676;45.192;5.722;2022-12-07T21:16:20;4.80;99.90
13223;DHT22;6676;45.192;5.722;2022-12-07T21:21:56;4.90;99.90
13223;DHT22;6676;45.192;5.722;2022-12-07T21:24:48;4.90;99.90
13223;DHT22;6676;45.192;5.722;2022-12-07T21:27:40;4.90;99.90
13223;DHT22;6676;45.192;5.722;2022-12-07T21:33:14;4.80;99.90
13223;DHT22;6676;45.192;5.722;2022-12-07T21:36:07;4.90;99.90
13223;DHT22;6676;45.192;5.722;2022-12-07T21:38:59;4.90;99.90
13223;DHT22;6676;45.192;5.722;2022-12-07T21:41:51;4.80;99.90
13223;DHT22;6676;45.192;5.722;2022-12-07T21:44:43;4.90;99.90
13223;DHT22;6676;45.192;5.722;2022-12-07T21:47:34;4.90;99.90
13223;DHT22;6676;45.192;5.722;2022-12-07T21:50:26;4.90;99.90
13223;DHT22;6676;45.192;5.722;2022-12-07T21:56:13;4.90;99.90
13223;DHT22;6676;45.192;5.722;2022-12-07T22:01:48;4.90;99.90
13223;DHT22;6676;45.192;5.722;2022-12-07T22:04:41;4.80;99.90
13223;DHT22;6676;45.192;5.722;2022-12-07T22:07:34;4.80;99.90
13223;DHT22;6676;45.192;5.722;2022-12-07T22:10:25;4.80;99.90
13223;DHT22;6676;45.192;5.722;2022-12-07T22:13:20;4.90;99.90
13223;DHT22;6676;45.192;5.722;2022-12-07T22:16:13;4.80;99.90
13223;DHT22;6676;45.192;5.722;2022-12-07T22:19:06;4.80;99.90
13223;DHT22;6676;45.192;5.722;2022-12-07T22:21:58;4.80;99.90
13223;DHT22;6676;45.192;5.722;2022-12-07T22:27:27;4.70;99.90
13223;DHT22;6676;45.192;5.722;2022-12-07T22:30:19;4.80;99.90
13223;DHT22;6676;45.192;5.722;2022-12-07T22:33:11;4.80;99.90
13223;DHT22;6676;45.192;5.722;2022-12-07T22:36:03;4.80;99.90
13223;DHT22;6676;45.192;5.722;2022-12-07T22:38:55;4.80;99.90
13223;DHT22;6676;45.192;5.722;2022-12-07T22:41:47;4.80;99.90
13223;DHT22;6676;45.192;5.722;2022-12-07T22:44:38;4.70;99.90
13223;DHT22;6676;45.192;5.722;2022-12-07T22:47:32;4.70;99.90
13223;DHT22;6676;45.192;5.722;2022-12-07T22:50:23;4.70;99.90
13223;DHT22;6676;45.192;5.722;2022-12-07T22:53:15;4.70;99.90
13223;DHT22;6676;45.192;5.722;2022-12-07T22:56:07;4.60;99.90